Hackettstown, NJ

3:34 PM EDT on September 30, 2016 (GMT -0400)
| | Change Station

Elev -9999 ft 0.00 °N, 0.00 °E | Updated

Cloudy
Cloudy
53 °F
Feels Like 53 °F
N
10
Wind Variable Wind from NE
Gusts 17 mph

Today
High -- | Low -- °F
--% Chance of Precip.
Yesterday
High -- | Low -- °F
Precip. -- in
Pressure 30.24 in
Visibility 5.0 miles
Clouds Overcast 1400 ft
Dew Point 52 °F
Humidity 94%
Rainfall --
Snow Depth Not available.
6:55 AM 6:42 PM
Waning Crescent, 0% visible
METAR KSMQ 301853Z AUTO 04010KT 5SM HZ OVC014 16/13 A3023 RMK AO2 SLP238 T01560128 $
Pressure 30.24 in
Visibility 5.0 miles
Clouds Overcast 1400 ft
Dew Point 52 °F
Humidity 94%
Rainfall --
Snow Depth Not available.
6:55 AM 6:42 PM
Waning Crescent, 0% visible
METAR KSMQ 301853Z AUTO 04010KT 5SM HZ OVC014 16/13 A3023 RMK AO2 SLP238 T01560128 $

10-Day Weather Forecast

Almanac

Astronomy

Sep. 30, 2016 Rise Set
Actual Time
Civil Twilight
Nautical Twilight
Astronomical Twilight
Moon
Length of Visible Light
Length of Day
Tomorrow will be .
, % of the Moon is Illuminated

Today's Extremes

State Highs State Lows

Community

WunderPhotos

Upload Photos

1,942,762 photos uploaded!

WunderBlog® & News

Nearby

Air Quality

  Air Quality AQ Index Pollutant
Not available.

Snow Depth

Station Depth Elevation

Earthquake Activity

City Distance Mag. Time & Date
Minimum magnitude displayed is 2.5.

Coastal Water Temperatures

Place Temperature

Stations

Nearby Weather Stations

Station Location Temp. Windchill Dew Point Humidity Wind Precip. Elev Updated Type
                   

Watches & Warnings

There are currently no watches in effect.